sensor_id;sensor_type;location;lat;lon;timestamp;pressure;altitude;pressure_sealevel;temperature;humidity
9325;BME280;4701;51.566;6.776;2023-05-19T07:03:37;102265.28;;;9.47;78.94
9325;BME280;4701;51.566;6.776;2023-05-19T07:06:39;102266.22;;;9.59;79.49
9325;BME280;4701;51.566;6.776;2023-05-19T07:09:43;102261.69;;;9.71;79.52
9325;BME280;4701;51.566;6.776;2023-05-19T07:12:45;102264.31;;;9.84;79.07
9325;BME280;4701;51.566;6.776;2023-05-19T07:15:49;102257.88;;;9.97;78.72
9325;BME280;4701;51.566;6.776;2023-05-19T07:18:54;102250.63;;;10.09;78.39
9325;BME280;4701;51.566;6.776;2023-05-19T07:21:56;102255.13;;;10.22;77.74
9325;BME280;4701;51.566;6.776;2023-05-19T07:24:59;102253.31;;;10.34;77.32
9325;BME280;4701;51.566;6.776;2023-05-19T07:28:02;102255.00;;;10.47;76.69
9325;BME280;4701;51.566;6.776;2023-05-19T07:31:04;102252.34;;;10.58;75.98
9325;BME280;4701;51.566;6.776;2023-05-19T07:34:07;102258.09;;;10.69;75.68
9325;BME280;4701;51.566;6.776;2023-05-19T07:37:09;102253.75;;;10.79;75.41
9325;BME280;4701;51.566;6.776;2023-05-19T07:40:11;102251.06;;;10.91;74.76
9325;BME280;4701;51.566;6.776;2023-05-19T07:43:13;102253.22;;;11.00;74.36
9325;BME280;4701;51.566;6.776;2023-05-19T07:46:15;102249.94;;;11.10;74.19
9325;BME280;4701;51.566;6.776;2023-05-19T07:49:18;102250.19;;;11.20;73.61
9325;BME280;4701;51.566;6.776;2023-05-19T07:52:20;102248.78;;;11.29;73.00
9325;BME280;4701;51.566;6.776;2023-05-19T07:55:22;102242.16;;;11.37;72.59
9325;BME280;4701;51.566;6.776;2023-05-19T07:58:24;102247.88;;;11.47;72.22
9325;BME280;4701;51.566;6.776;2023-05-19T08:01:26;102242.06;;;11.55;71.84
9325;BME280;4701;51.566;6.776;2023-05-19T08:04:29;102243.38;;;11.64;71.44
9325;BME280;4701;51.566;6.776;2023-05-19T08:07:31;102235.88;;;11.71;71.19
9325;BME280;4701;51.566;6.776;2023-05-19T08:10:33;102239.94;;;11.81;70.82
9325;BME280;4701;51.566;6.776;2023-05-19T08:13:35;102236.03;;;11.88;70.45
9325;BME280;4701;51.566;6.776;2023-05-19T08:16:36;102242.19;;;11.95;70.13
9325;BME280;4701;51.566;6.776;2023-05-19T08:19:42;102239.91;;;12.04;69.73
9325;BME280;4701;51.566;6.776;2023-05-19T08:22:44;102229.69;;;12.11;69.48
9325;BME280;4701;51.566;6.776;2023-05-19T08:25:46;102231.22;;;12.19;69.16
9325;BME280;4701;51.566;6.776;2023-05-19T08:28:48;102228.09;;;12.27;69.07
9325;BME280;4701;51.566;6.776;2023-05-19T08:31:50;102230.44;;;12.35;68.62
9325;BME280;4701;51.566;6.776;2023-05-19T08:34:54;102224.59;;;12.43;67.97
9325;BME280;4701;51.566;6.776;2023-05-19T08:37:56;102228.06;;;12.50;68.05
9325;BME280;4701;51.566;6.776;2023-05-19T08:40:57;102219.44;;;12.58;67.37
9325;BME280;4701;51.566;6.776;2023-05-19T08:43:59;102212.75;;;12.66;67.14
9325;BME280;4701;51.566;6.776;2023-05-19T08:47:03;102211.53;;;12.73;66.25
9325;BME280;4701;51.566;6.776;2023-05-19T08:50:08;102210.53;;;12.79;65.85
9325;BME280;4701;51.566;6.776;2023-05-19T08:53:13;102212.03;;;12.87;65.50
9325;BME280;4701;51.566;6.776;2023-05-19T08:56:20;102211.88;;;12.94;65.46
9325;BME280;4701;51.566;6.776;2023-05-19T08:59:23;102203.78;;;12.99;65.18
9325;BME280;4701;51.566;6.776;2023-05-19T09:02:26;102197.06;;;13.06;64.96
9325;BME280;4701;51.566;6.776;2023-05-19T09:05:29;102192.50;;;13.12;64.51
9325;BME280;4701;51.566;6.776;2023-05-19T09:08:32;102187.16;;;13.17;63.74
9325;BME280;4701;51.566;6.776;2023-05-19T09:11:34;102185.91;;;13.24;62.78
9325;BME280;4701;51.566;6.776;2023-05-19T09:14:37;102183.22;;;13.30;62.74
9325;BME280;4701;51.566;6.776;2023-05-19T09:17:39;102189.06;;;13.33;62.50
9325;BME280;4701;51.566;6.776;2023-05-19T09:20:44;102193.28;;;13.41;62.85
9325;BME280;4701;51.566;6.776;2023-05-19T09:23:46;102174.75;;;13.48;62.92
9325;BME280;4701;51.566;6.776;2023-05-19T09:26:49;102161.13;;;13.53;61.97
9325;BME280;4701;51.566;6.776;2023-05-19T09:29:50;102180.38;;;13.58;61.65
9325;BME280;4701;51.566;6.776;2023-05-19T09:32:52;102178.53;;;13.63;61.06
9325;BME280;4701;51.566;6.776;2023-05-19T09:35:56;102167.38;;;13.70;60.29
9325;BME280;4701;51.566;6.776;2023-05-19T09:38:58;102172.72;;;13.77;60.03
9325;BME280;4701;51.566;6.776;2023-05-19T09:42:03;102157.16;;;13.82;60.54
9325;BME280;4701;51.566;6.776;2023-05-19T09:45:07;102158.88;;;13.88;60.84
9325;BME280;4701;51.566;6.776;2023-05-19T09:48:09;102154.03;;;13.95;60.84
9325;BME280;4701;51.566;6.776;2023-05-19T09:51:13;102145.88;;;14.00;60.87
9325;BME280;4701;51.566;6.776;2023-05-19T09:54:15;102155.31;;;14.10;61.30
9325;BME280;4701;51.566;6.776;2023-05-19T09:57:24;102155.13;;;14.16;61.27
9325;BME280;4701;51.566;6.776;2023-05-19T10:00:27;102145.59;;;14.24;61.45
9325;BME280;4701;51.566;6.776;2023-05-19T10:03:30;102141.81;;;14.30;61.53
9325;BME280;4701;51.566;6.776;2023-05-19T10:06:34;102149.88;;;14.36;61.33
9325;BME280;4701;51.566;6.776;2023-05-19T10:09:36;102147.78;;;14.44;61.11
9325;BME280;4701;51.566;6.776;2023-05-19T10:12:40;102140.41;;;14.49;59.81
9325;BME280;4701;51.566;6.776;2023-05-19T10:15:42;102141.28;;;14.55;59.47
9325;BME280;4701;51.566;6.776;2023-05-19T10:18:45;102137.78;;;14.59;58.77
9325;BME280;4701;51.566;6.776;2023-05-19T10:30:10;102136.88;;;14.81;58.69
9325;BME280;4701;51.566;6.776;2023-05-19T10:33:18;102128.69;;;14.86;59.14
9325;BME280;4701;51.566;6.776;2023-05-19T10:36:31;102144.09;;;14.92;59.60
9325;BME280;4701;51.566;6.776;2023-05-19T10:39:35;102130.16;;;14.98;59.58
9325;BME280;4701;51.566;6.776;2023-05-19T10:42:42;102123.34;;;15.06;58.94
9325;BME280;4701;51.566;6.776;2023-05-19T10:45:50;102122.31;;;15.12;58.06
9325;BME280;4701;51.566;6.776;2023-05-19T10:48:52;102119.34;;;15.19;57.74
9325;BME280;4701;51.566;6.776;2023-05-19T10:52:18;102123.75;;;15.25;57.77
9325;BME280;4701;51.566;6.776;2023-05-19T10:55:46;102111.44;;;15.32;57.98
9325;BME280;4701;51.566;6.776;2023-05-19T10:58:53;102113.41;;;15.37;57.74
9325;BME280;4701;51.566;6.776;2023-05-19T11:02:07;102114.00;;;15.44;57.64
9325;BME280;4701;51.566;6.776;2023-05-19T11:05:35;102113.50;;;15.52;58.21
9325;BME280;4701;51.566;6.776;2023-05-19T11:08:37;102115.19;;;15.58;58.01
9325;BME280;4701;51.566;6.776;2023-05-19T11:11:46;102110.59;;;15.64;56.52
9325;BME280;4701;51.566;6.776;2023-05-19T11:14:51;102116.91;;;15.69;56.31
9325;BME280;4701;51.566;6.776;2023-05-19T11:17:54;102108.41;;;15.76;56.31
9325;BME280;4701;51.566;6.776;2023-05-19T11:20:59;102105.72;;;15.81;55.95
9325;BME280;4701;51.566;6.776;2023-05-19T11:24:01;102105.16;;;15.84;56.15
9325;BME280;4701;51.566;6.776;2023-05-19T11:27:26;102105.72;;;15.91;55.89
9325;BME280;4701;51.566;6.776;2023-05-19T11:30:30;102115.94;;;15.96;55.67
9325;BME280;4701;51.566;6.776;2023-05-19T11:33:48;102107.16;;;15.99;55.71
9325;BME280;4701;51.566;6.776;2023-05-19T11:37:31;102101.66;;;16.04;54.91
9325;BME280;4701;51.566;6.776;2023-05-19T11:40:34;102096.47;;;16.07;55.71
9325;BME280;4701;51.566;6.776;2023-05-19T11:43:36;102086.56;;;16.11;55.79
9325;BME280;4701;51.566;6.776;2023-05-19T11:46:37;102084.09;;;16.15;55.63
9325;BME280;4701;51.566;6.776;2023-05-19T11:49:43;102083.00;;;16.21;56.23
9325;BME280;4701;51.566;6.776;2023-05-19T11:52:45;102089.59;;;16.25;55.79
9325;BME280;4701;51.566;6.776;2023-05-19T11:55:48;102084.13;;;16.30;56.62
9325;BME280;4701;51.566;6.776;2023-05-19T11:58:52;102079.19;;;16.37;56.38
9325;BME280;4701;51.566;6.776;2023-05-19T12:01:54;102076.44;;;16.42;56.35
9325;BME280;4701;51.566;6.776;2023-05-19T12:04:57;102077.00;;;16.49;56.95
9325;BME280;4701;51.566;6.776;2023-05-19T12:07:59;102079.47;;;16.56;56.98
9325;BME280;4701;51.566;6.776;2023-05-19T12:11:01;102066.56;;;16.61;56.59
9325;BME280;4701;51.566;6.776;2023-05-19T12:14:03;102067.41;;;16.67;56.27
9325;BME280;4701;51.566;6.776;2023-05-19T12:17:10;102060.25;;;16.71;54.71
9325;BME280;4701;51.566;6.776;2023-05-19T12:20:14;102059.13;;;16.77;55.46
9325;BME280;4701;51.566;6.776;2023-05-19T12:23:15;102059.97;;;16.83;53.90
9325;BME280;4701;51.566;6.776;2023-05-19T12:26:17;102062.44;;;16.89;53.62
9325;BME280;4701;51.566;6.776;2023-05-19T12:29:26;102059.13;;;16.97;54.38
9325;BME280;4701;51.566;6.776;2023-05-19T12:32:28;102053.31;;;17.04;52.89
9325;BME280;4701;51.566;6.776;2023-05-19T12:35:36;102045.59;;;17.11;51.21
9325;BME280;4701;51.566;6.776;2023-05-19T12:38:40;102045.84;;;17.20;51.68
9325;BME280;4701;51.566;6.776;2023-05-19T12:41:43;102034.81;;;17.30;52.67
9325;BME280;4701;51.566;6.776;2023-05-19T12:44:46;102038.06;;;17.42;54.08
9325;BME280;4701;51.566;6.776;2023-05-19T12:47:49;102031.41;;;17.53;54.34
9325;BME280;4701;51.566;6.776;2023-05-19T12:50:53;102038.56;;;17.64;52.67
9325;BME280;4701;51.566;6.776;2023-05-19T12:53:55;102026.13;;;17.72;51.76
9325;BME280;4701;51.566;6.776;2023-05-19T12:56:57;102022.47;;;17.82;51.47
9325;BME280;4701;51.566;6.776;2023-05-19T13:00:00;102018.28;;;17.89;52.25
9325;BME280;4701;51.566;6.776;2023-05-19T13:03:03;102018.53;;;17.98;52.12
9325;BME280;4701;51.566;6.776;2023-05-19T13:06:07;102014.59;;;18.04;52.70
9325;BME280;4701;51.566;6.776;2023-05-19T13:09:09;102021.22;;;18.08;52.17
9325;BME280;4701;51.566;6.776;2023-05-19T13:12:11;102023.66;;;18.14;51.78
9325;BME280;4701;51.566;6.776;2023-05-19T13:15:13;102025.84;;;18.18;51.10
9325;BME280;4701;51.566;6.776;2023-05-19T13:18:16;102015.59;;;18.23;51.05
9325;BME280;4701;51.566;6.776;2023-05-19T13:21:19;102017.50;;;18.28;50.93
9325;BME280;4701;51.566;6.776;2023-05-19T13:24:21;102018.56;;;18.32;50.92
9325;BME280;4701;51.566;6.776;2023-05-19T13:27:23;102014.13;;;18.36;51.53
9325;BME280;4701;51.566;6.776;2023-05-19T13:30:25;102015.19;;;18.40;52.07
9325;BME280;4701;51.566;6.776;2023-05-19T13:33:30;102015.16;;;18.45;51.39
9325;BME280;4701;51.566;6.776;2023-05-19T13:36:36;102015.94;;;18.50;51.34
9325;BME280;4701;51.566;6.776;2023-05-19T13:39:38;102005.44;;;18.52;49.74
9325;BME280;4701;51.566;6.776;2023-05-19T13:42:41;101994.91;;;18.54;48.97
9325;BME280;4701;51.566;6.776;2023-05-19T13:45:43;101997.13;;;18.58;49.77
9325;BME280;4701;51.566;6.776;2023-05-19T13:48:45;101986.34;;;18.61;50.44
9325;BME280;4701;51.566;6.776;2023-05-19T13:51:48;101988.81;;;18.63;50.39
9325;BME280;4701;51.566;6.776;2023-05-19T13:54:50;101985.44;;;18.66;47.54
9325;BME280;4701;51.566;6.776;2023-05-19T13:57:54;101975.22;;;18.66;48.69
9325;BME280;4701;51.566;6.776;2023-05-19T14:00:55;101988.19;;;18.71;48.67
9325;BME280;4701;51.566;6.776;2023-05-19T14:03:59;101977.34;;;18.74;48.31
9325;BME280;4701;51.566;6.776;2023-05-19T14:07:02;101980.38;;;18.78;48.54
9325;BME280;4701;51.566;6.776;2023-05-19T14:10:05;101981.69;;;18.80;47.59
9325;BME280;4701;51.566;6.776;2023-05-19T14:13:07;101973.13;;;18.82;48.09
9325;BME280;4701;51.566;6.776;2023-05-19T14:16:11;101968.41;;;18.87;49.67
9325;BME280;4701;51.566;6.776;2023-05-19T14:19:13;101976.06;;;18.90;48.47
9325;BME280;4701;51.566;6.776;2023-05-19T14:22:16;101974.69;;;18.93;47.68
9325;BME280;4701;51.566;6.776;2023-05-19T14:25:19;101979.63;;;18.96;49.22
9325;BME280;4701;51.566;6.776;2023-05-19T14:28:21;101964.38;;;18.99;48.17
9325;BME280;4701;51.566;6.776;2023-05-19T14:31:22;101974.03;;;19.01;48.38
9325;BME280;4701;51.566;6.776;2023-05-19T14:34:24;101969.88;;;19.04;48.38
9325;BME280;4701;51.566;6.776;2023-05-19T14:37:28;101980.31;;;19.07;48.25
9325;BME280;4701;51.566;6.776;2023-05-19T14:40:31;101972.56;;;19.09;47.26
9325;BME280;4701;51.566;6.776;2023-05-19T14:43:32;101975.84;;;19.11;48.91
9325;BME280;4701;51.566;6.776;2023-05-19T14:46:34;101970.63;;;19.09;46.55
9325;BME280;4701;51.566;6.776;2023-05-19T14:49:36;101967.84;;;19.09;47.24
9325;BME280;4701;51.566;6.776;2023-05-19T14:52:39;101968.41;;;19.11;48.93
9325;BME280;4701;51.566;6.776;2023-05-19T14:55:41;101976.41;;;19.13;49.06
9325;BME280;4701;51.566;6.776;2023-05-19T14:58:43;101960.63;;;19.13;49.90
9325;BME280;4701;51.566;6.776;2023-05-19T15:01:44;101961.97;;;19.16;48.45
9325;BME280;4701;51.566;6.776;2023-05-19T15:04:46;101964.44;;;19.17;48.04
9325;BME280;4701;51.566;6.776;2023-05-19T15:07:49;101965.28;;;19.18;48.10
9325;BME280;4701;51.566;6.776;2023-05-19T15:10:51;101965.81;;;19.20;48.44
9325;BME280;4701;51.566;6.776;2023-05-19T15:13:53;101959.16;;;19.21;49.69
9325;BME280;4701;51.566;6.776;2023-05-19T15:16:54;101956.69;;;19.19;46.84
9325;BME280;4701;51.566;6.776;2023-05-19T15:19:56;101950.34;;;19.19;46.99
9325;BME280;4701;51.566;6.776;2023-05-19T15:22:59;101949.22;;;19.20;47.02
9325;BME280;4701;51.566;6.776;2023-05-19T15:26:01;101950.56;;;19.22;48.31
9325;BME280;4701;51.566;6.776;2023-05-19T15:29:03;101951.09;;;19.24;48.64
9325;BME280;4701;51.566;6.776;2023-05-19T15:32:06;101946.91;;;19.27;48.23
9325;BME280;4701;51.566;6.776;2023-05-19T15:35:08;101941.38;;;19.27;47.78
9325;BME280;4701;51.566;6.776;2023-05-19T15:38:11;101946.00;;;19.32;47.52
9325;BME280;4701;51.566;6.776;2023-05-19T15:41:13;101945.44;;;19.35;48.48
9325;BME280;4701;51.566;6.776;2023-05-19T15:44:15;101947.91;;;19.36;47.45
9325;BME280;4701;51.566;6.776;2023-05-19T15:47:17;101947.63;;;19.38;48.35
9325;BME280;4701;51.566;6.776;2023-05-19T15:50:18;101951.41;;;19.42;48.55
9325;BME280;4701;51.566;6.776;2023-05-19T15:53:21;101946.41;;;19.44;48.07
9325;BME280;4701;51.566;6.776;2023-05-19T15:56:23;101945.00;;;19.46;48.27
9325;BME280;4701;51.566;6.776;2023-05-19T15:59:25;101942.25;;;19.46;48.20
9325;BME280;4701;51.566;6.776;2023-05-19T16:02:27;101948.59;;;19.47;47.64
9325;BME280;4701;51.566;6.776;2023-05-19T16:05:28;101926.47;;;19.47;47.55
9325;BME280;4701;51.566;6.776;2023-05-19T16:08:32;101937.25;;;19.48;47.38
9325;BME280;4701;51.566;6.776;2023-05-19T16:11:33;101932.53;;;19.49;48.21
9325;BME280;4701;51.566;6.776;2023-05-19T16:14:35;101935.00;;;19.50;48.27
9325;BME280;4701;51.566;6.776;2023-05-19T16:17:37;101930.84;;;19.53;48.57
9325;BME280;4701;51.566;6.776;2023-05-19T16:20:38;101935.25;;;19.54;48.06
9325;BME280;4701;51.566;6.776;2023-05-19T16:23:42;101927.50;;;19.56;47.57
9325;BME280;4701;51.566;6.776;2023-05-19T16:26:43;101933.53;;;19.58;47.81
9325;BME280;4701;51.566;6.776;2023-05-19T16:29:45;101924.13;;;19.59;46.35
9325;BME280;4701;51.566;6.776;2023-05-19T16:32:47;101917.47;;;19.60;46.80
9325;BME280;4701;51.566;6.776;2023-05-19T16:35:49;101917.16;;;19.61;47.06
9325;BME280;4701;51.566;6.776;2023-05-19T16:38:52;101918.81;;;19.62;46.27
9325;BME280;4701;51.566;6.776;2023-05-19T16:41:54;101915.75;;;19.64;44.16
9325;BME280;4701;51.566;6.776;2023-05-19T16:44:56;101920.13;;;19.65;44.39
9325;BME280;4701;51.566;6.776;2023-05-19T16:47:57;101918.72;;;19.68;45.67
9325;BME280;4701;51.566;6.776;2023-05-19T16:50:59;101912.91;;;19.69;45.64
9325;BME280;4701;51.566;6.776;2023-05-19T16:54:02;101914.25;;;19.72;45.54
9325;BME280;4701;51.566;6.776;2023-05-19T16:57:04;101916.72;;;19.73;45.47
9325;BME280;4701;51.566;6.776;2023-05-19T17:00:07;101916.09;;;19.76;45.94
9325;BME280;4701;51.566;6.776;2023-05-19T17:03:09;101901.97;;;19.78;45.69
9325;BME280;4701;51.566;6.776;2023-05-19T17:06:11;101912.47;;;19.81;45.73
9325;BME280;4701;51.566;6.776;2023-05-19T17:09:14;101901.06;;;19.82;46.55
9325;BME280;4701;51.566;6.776;2023-05-19T17:12:16;101903.53;;;19.84;45.32
9325;BME280;4701;51.566;6.776;2023-05-19T17:15:18;101912.38;;;19.86;46.05
9325;BME280;4701;51.566;6.776;2023-05-19T17:18:20;101910.66;;;19.90;46.41
9325;BME280;4701;51.566;6.776;2023-05-19T17:21:21;101907.56;;;19.91;43.96
9325;BME280;4701;51.566;6.776;2023-05-19T17:24:24;101904.50;;;19.93;44.55
9325;BME280;4701;51.566;6.776;2023-05-19T17:27:28;101902.78;;;19.97;44.87
9325;BME280;4701;51.566;6.776;2023-05-19T17:30:30;101909.16;;;19.97;43.75
9325;BME280;4701;51.566;6.776;2023-05-19T17:33:32;101904.44;;;19.98;44.49
9325;BME280;4701;51.566;6.776;2023-05-19T17:36:33;101906.88;;;19.99;44.73
9325;BME280;4701;51.566;6.776;2023-05-19T17:39:37;101916.81;;;20.00;45.86
9325;BME280;4701;51.566;6.776;2023-05-19T17:42:39;101909.34;;;20.01;45.47
9325;BME280;4701;51.566;6.776;2023-05-19T17:45:41;101918.47;;;20.01;46.70
9325;BME280;4701;51.566;6.776;2023-05-19T17:48:42;101925.13;;;20.00;45.74
9325;BME280;4701;51.566;6.776;2023-05-19T17:51:45;101917.94;;;19.99;46.42
9325;BME280;4701;51.566;6.776;2023-05-19T17:54:48;101920.50;;;19.96;45.75
9325;BME280;4701;51.566;6.776;2023-05-19T17:57:51;101917.50;;;19.92;45.65
9325;BME280;4701;51.566;6.776;2023-05-19T18:00:54;101916.50;;;19.88;45.63
9325;BME280;4701;51.566;6.776;2023-05-19T18:03:58;101919.63;;;19.82;44.63
9325;BME280;4701;51.566;6.776;2023-05-19T18:07:03;101916.41;;;19.75;44.68
9325;BME280;4701;51.566;6.776;2023-05-19T18:10:10;101919.56;;;19.68;44.31
9325;BME280;4701;51.566;6.776;2023-05-19T18:13:14;101916.34;;;19.61;44.77
9325;BME280;4701;51.566;6.776;2023-05-19T18:16:16;101919.50;;;19.54;45.58
9325;BME280;4701;51.566;6.776;2023-05-19T18:19:20;101912.66;;;19.47;44.86
9325;BME280;4701;51.566;6.776;2023-05-19T18:22:22;101921.63;;;19.39;45.63
9325;BME280;4701;51.566;6.776;2023-05-19T18:25:25;101927.50;;;19.32;45.87
9325;BME280;4701;51.566;6.776;2023-05-19T18:28:27;101927.84;;;19.25;46.26
9325;BME280;4701;51.566;6.776;2023-05-19T18:31:29;101927.41;;;19.18;46.32
9325;BME280;4701;51.566;6.776;2023-05-19T18:34:31;101934.41;;;19.11;46.28
9325;BME280;4701;51.566;6.776;2023-05-19T18:37:33;101941.41;;;19.03;46.58
9325;BME280;4701;51.566;6.776;2023-05-19T18:40:36;101943.38;;;18.98;46.99
9325;BME280;4701;51.566;6.776;2023-05-19T18:43:38;101947.34;;;18.92;46.81
9325;BME280;4701;51.566;6.776;2023-05-19T18:46:40;101945.22;;;18.83;47.12
9325;BME280;4701;51.566;6.776;2023-05-19T18:49:42;101944.47;;;18.78;47.24
9325;BME280;4701;51.566;6.776;2023-05-19T18:52:44;101942.84;;;18.72;47.09
9325;BME280;4701;51.566;6.776;2023-05-19T18:55:47;101945.13;;;18.65;47.81
9325;BME280;4701;51.566;6.776;2023-05-19T18:58:49;101954.31;;;18.60;48.12
9325;BME280;4701;51.566;6.776;2023-05-19T19:01:51;101943.59;;;18.53;48.11
9325;BME280;4701;51.566;6.776;2023-05-19T19:04:54;101947.19;;;18.49;48.60
9325;BME280;4701;51.566;6.776;2023-05-19T19:07:55;101946.72;;;18.42;48.28
9325;BME280;4701;51.566;6.776;2023-05-19T19:10:59;101946.78;;;18.37;48.58
9325;BME280;4701;51.566;6.776;2023-05-19T19:14:00;101939.91;;;18.29;48.86
9325;BME280;4701;51.566;6.776;2023-05-19T19:17:02;101955.41;;;18.25;48.90
9325;BME280;4701;51.566;6.776;2023-05-19T19:20:06;101953.00;;;18.19;49.04
9325;BME280;4701;51.566;6.776;2023-05-19T19:23:08;101959.38;;;18.14;48.97
9325;BME280;4701;51.566;6.776;2023-05-19T19:26:11;101969.09;;;18.06;49.13
9325;BME280;4701;51.566;6.776;2023-05-19T19:29:13;101969.41;;;18.00;49.39
9325;BME280;4701;51.566;6.776;2023-05-19T19:32:17;101972.22;;;17.95;49.05
9325;BME280;4701;51.566;6.776;2023-05-19T19:35:19;101974.16;;;17.89;49.51
9325;BME280;4701;51.566;6.776;2023-05-19T19:38:21;101977.25;;;17.83;49.30
9325;BME280;4701;51.566;6.776;2023-05-19T19:41:24;101979.22;;;17.77;49.88
9325;BME280;4701;51.566;6.776;2023-05-19T19:44:29;101981.16;;;17.71;50.10
9325;BME280;4701;51.566;6.776;2023-05-19T19:47:30;101983.13;;;17.66;49.90
9325;BME280;4701;51.566;6.776;2023-05-19T19:50:33;101984.25;;;17.60;50.52
9325;BME280;4701;51.566;6.776;2023-05-19T19:53:35;101986.19;;;17.54;50.23
9325;BME280;4701;51.566;6.776;2023-05-19T19:56:38;101985.41;;;17.49;50.90
9325;BME280;4701;51.566;6.776;2023-05-19T19:59:40;101989.81;;;17.45;51.12
9325;BME280;4701;51.566;6.776;2023-05-19T20:02:42;101987.38;;;17.38;51.18
9325;BME280;4701;51.566;6.776;2023-05-19T20:05:44;101996.78;;;17.32;51.23
9325;BME280;4701;51.566;6.776;2023-05-19T20:08:46;101994.84;;;17.27;51.65
9325;BME280;4701;51.566;6.776;2023-05-19T20:11:49;102003.13;;;17.22;51.60
9325;BME280;4701;51.566;6.776;2023-05-19T20:14:52;101996.00;;;17.16;51.46
9325;BME280;4701;51.566;6.776;2023-05-19T20:17:54;101997.94;;;17.11;51.60
9325;BME280;4701;51.566;6.776;2023-05-19T20:20:56;101997.97;;;17.06;51.58
9325;BME280;4701;51.566;6.776;2023-05-19T20:23:58;102006.25;;;17.00;51.43
9325;BME280;4701;51.566;6.776;2023-05-19T20:27:01;102001.84;;;16.94;51.52
9325;BME280;4701;51.566;6.776;2023-05-19T20:30:04;101999.09;;;16.89;51.85
9325;BME280;4701;51.566;6.776;2023-05-19T20:33:06;101996.34;;;16.84;51.83
9325;BME280;4701;51.566;6.776;2023-05-19T20:36:08;101999.94;;;16.80;52.10
9325;BME280;4701;51.566;6.776;2023-05-19T20:39:11;102005.75;;;16.73;52.19
9325;BME280;4701;51.566;6.776;2023-05-19T20:42:14;102002.69;;;16.70;52.38
9325;BME280;4701;51.566;6.776;2023-05-19T20:45:16;102001.06;;;16.63;52.16
9325;BME280;4701;51.566;6.776;2023-05-19T20:48:18;102010.09;;;16.59;52.59
9325;BME280;4701;51.566;6.776;2023-05-19T20:51:20;102020.31;;;16.53;52.65
9325;BME280;4701;51.566;6.776;2023-05-19T20:54:24;102011.78;;;16.50;52.71
9325;BME280;4701;51.566;6.776;2023-05-19T20:57:27;102010.94;;;16.44;52.79
